createdAt,value
2023-03-06T00:00:07.504Z,26.47
2023-03-06T00:02:33.904Z,26.87
2023-03-06T00:05:00.319Z,27.72
2023-03-06T00:07:26.697Z,27.54
2023-03-06T00:09:53.065Z,26.17
2023-03-06T00:12:19.414Z,26.12
2023-03-06T00:14:45.788Z,26.92
2023-03-06T00:17:12.168Z,26.18
2023-03-06T00:19:38.549Z,26.63
2023-03-06T00:22:04.946Z,26.81
2023-03-06T00:24:31.352Z,25.50
2023-03-06T00:26:57.721Z,25.99
2023-03-06T00:29:24.064Z,25.78
2023-03-06T00:31:50.535Z,27.01
2023-03-06T00:34:16.946Z,25.85
2023-03-06T00:36:43.316Z,26.05
2023-03-06T00:39:09.704Z,24.83
2023-03-06T00:41:36.100Z,24.76
2023-03-06T00:44:02.455Z,26.70
2023-03-06T00:46:28.815Z,26.61
2023-03-06T00:48:55.216Z,25.08
2023-03-06T00:51:21.606Z,24.53
2023-03-06T00:53:47.974Z,26.34
2023-03-06T00:56:14.594Z,27.49
2023-03-06T00:58:40.960Z,28.32
2023-03-06T01:01:07.400Z,28.13
2023-03-06T01:03:33.775Z,27.57
2023-03-06T01:06:00.183Z,27.37
2023-03-06T01:08:26.575Z,28.66
2023-03-06T01:10:52.998Z,29.66
2023-03-06T01:13:19.353Z,28.89
2023-03-06T01:15:45.732Z,28.51
2023-03-06T01:18:12.099Z,28.77
2023-03-06T01:20:38.485Z,28.56
2023-03-06T01:23:04.886Z,29.58
2023-03-06T01:25:31.255Z,29.56
2023-03-06T01:27:57.607Z,28.30
2023-03-06T01:30:23.993Z,28.61
2023-03-06T01:32:50.389Z,28.94
2023-03-06T01:35:16.754Z,28.32
2023-03-06T01:37:43.168Z,29.58
2023-03-06T01:40:09.569Z,28.29
2023-03-06T01:42:35.993Z,27.39
2023-03-06T01:45:02.375Z,27.51
2023-03-06T01:47:28.741Z,28.55
2023-03-06T01:49:55.143Z,27.27
2023-03-06T01:52:21.598Z,27.55
2023-03-06T01:54:48.001Z,28.30
2023-03-06T01:57:14.358Z,27.99
2023-03-06T01:59:40.742Z,29.30
2023-03-06T02:02:07.145Z,29.65
2023-03-06T02:04:33.503Z,28.42
2023-03-06T02:06:59.904Z,27.90
2023-03-06T02:09:26.276Z,28.37
2023-03-06T02:11:52.670Z,27.19
2023-03-06T02:14:19.050Z,27.91
2023-03-06T02:16:45.493Z,28.77
2023-03-06T02:19:11.898Z,27.46
2023-03-06T02:21:38.259Z,27.21
2023-03-06T02:24:04.646Z,26.67
2023-03-06T02:26:31.058Z,28.36
2023-03-06T02:28:57.542Z,27.16
2023-03-06T02:31:23.945Z,27.34
2023-03-06T02:33:50.303Z,26.92
2023-03-06T02:36:16.646Z,26.95
2023-03-06T02:38:43.044Z,26.33
2023-03-06T02:41:09.460Z,26.70
2023-03-06T02:43:35.866Z,28.15
2023-03-06T02:46:02.296Z,28.26
2023-03-06T02:48:28.771Z,28.90
2023-03-06T02:50:55.126Z,29.09
2023-03-06T02:53:21.487Z,28.62
2023-03-06T02:55:47.891Z,28.80
2023-03-06T02:58:14.252Z,29.45
2023-03-06T03:00:40.628Z,28.52
2023-03-06T03:03:07.014Z,29.77
2023-03-06T03:05:33.407Z,30.07
2023-03-06T03:07:59.772Z,31.11
2023-03-06T03:10:26.161Z,29.60
2023-03-06T03:12:52.513Z,29.57
2023-03-06T03:15:18.909Z,28.67
2023-03-06T03:17:45.296Z,29.67
2023-03-06T03:20:11.725Z,29.18
2023-03-06T03:22:38.083Z,30.49
2023-03-06T03:25:04.451Z,31.16
2023-03-06T03:27:30.812Z,31.31
2023-03-06T03:29:57.232Z,30.93
2023-03-06T03:32:23.650Z,29.80
2023-03-06T03:34:50.005Z,29.78
2023-03-06T03:37:16.391Z,29.85
2023-03-06T03:39:42.777Z,29.88
2023-03-06T03:42:09.178Z,29.94
2023-03-06T03:44:35.568Z,30.49
2023-03-06T03:47:01.935Z,28.47
2023-03-06T03:49:28.300Z,29.29
2023-03-06T03:51:54.699Z,29.52
2023-03-06T03:54:21.097Z,29.68
2023-03-06T03:56:47.496Z,29.53
2023-03-06T03:59:13.853Z,30.72
2023-03-06T04:01:40.219Z,30.51
2023-03-06T04:04:06.609Z,31.28
2023-03-06T04:06:33.010Z,31.21
2023-03-06T04:08:59.415Z,31.04
2023-03-06T04:11:25.775Z,31.18
2023-03-06T04:13:52.137Z,30.76
2023-03-06T04:16:18.552Z,31.79
2023-03-06T04:18:44.981Z,32.21
2023-03-06T04:21:11.374Z,32.10
2023-03-06T04:23:37.783Z,32.53
2023-03-06T04:26:04.186Z,31.63
2023-03-06T04:28:30.595Z,31.06
2023-03-06T04:30:56.998Z,32.14
2023-03-06T04:33:23.371Z,31.60
2023-03-06T04:35:49.776Z,31.43
2023-03-06T04:38:16.150Z,31.28
2023-03-06T04:40:44.572Z,31.07
2023-03-06T04:43:11.358Z,32.64
2023-03-06T04:45:37.795Z,32.44
2023-03-06T04:48:04.176Z,33.91
2023-03-06T04:50:30.532Z,33.35
2023-03-06T04:52:56.917Z,35.47
2023-03-06T04:55:23.318Z,34.98
2023-03-06T04:57:49.733Z,34.12
2023-03-06T05:00:16.123Z,34.69
2023-03-06T05:02:42.521Z,35.39
2023-03-06T05:05:08.881Z,34.96
2023-03-06T05:07:35.227Z,36.07
2023-03-06T05:10:01.568Z,34.91
2023-03-06T05:12:27.904Z,35.35
2023-03-06T05:14:54.250Z,36.91
2023-03-06T05:17:20.647Z,34.79
2023-03-06T05:19:47.012Z,36.04
2023-03-06T05:22:13.371Z,34.20
2023-03-06T05:24:39.759Z,34.18
2023-03-06T05:27:06.134Z,36.96
2023-03-06T05:29:32.500Z,34.13
2023-03-06T05:31:58.990Z,35.38
2023-03-06T05:34:25.406Z,36.25
2023-03-06T05:36:51.779Z,36.13
2023-03-06T05:39:18.168Z,33.97
2023-03-06T05:41:44.583Z,35.41
2023-03-06T05:44:10.994Z,34.65
2023-03-06T05:46:37.355Z,35.51
2023-03-06T05:49:03.765Z,33.95
2023-03-06T05:51:30.186Z,35.96
2023-03-06T05:53:56.599Z,36.95
2023-03-06T05:56:23.000Z,35.73
2023-03-06T05:58:49.361Z,34.90
2023-03-06T06:01:15.763Z,35.16
2023-03-06T06:03:42.211Z,34.79
2023-03-06T06:06:08.594Z,34.91
2023-03-06T06:08:34.962Z,34.84
2023-03-06T06:11:01.350Z,34.53
2023-03-06T06:13:27.736Z,34.55
2023-03-06T06:15:54.184Z,33.98
2023-03-06T06:18:20.591Z,34.43
2023-03-06T06:20:47.009Z,35.19
2023-03-06T06:23:13.406Z,34.10
2023-03-06T06:25:39.804Z,33.89
2023-03-06T06:28:06.159Z,33.07
2023-03-06T06:30:32.520Z,33.50
2023-03-06T06:32:58.925Z,32.62
2023-03-06T06:35:25.349Z,33.28
2023-03-06T06:37:51.763Z,32.16
2023-03-06T06:40:18.167Z,32.63
2023-03-06T06:42:44.642Z,32.81
2023-03-06T06:45:11.029Z,33.40
2023-03-06T06:47:37.464Z,33.06
2023-03-06T06:50:03.868Z,33.23
2023-03-06T06:52:30.230Z,34.20
2023-03-06T06:54:56.584Z,34.96
2023-03-06T06:57:22.934Z,37.10
2023-03-06T06:59:50.718Z,36.33
2023-03-06T07:02:18.766Z,37.11
2023-03-06T07:05:02.048Z,35.98
2023-03-06T07:07:29.785Z,37.68
2023-03-06T07:09:56.160Z,36.84
2023-03-06T07:12:22.551Z,36.63
2023-03-06T07:14:48.927Z,36.69
2023-03-06T07:17:15.313Z,37.72
2023-03-06T07:19:41.707Z,36.87
2023-03-06T07:22:08.123Z,39.15
2023-03-06T07:24:34.690Z,39.82
2023-03-06T07:27:01.103Z,41.59
2023-03-06T07:29:27.524Z,40.60
2023-03-06T07:31:53.874Z,38.96
2023-03-06T07:34:20.261Z,37.38
2023-03-06T07:36:46.687Z,36.90
2023-03-06T07:39:13.072Z,37.56
2023-03-06T07:41:39.461Z,37.35
2023-03-06T07:44:05.826Z,36.99
2023-03-06T07:46:32.302Z,37.76
2023-03-06T07:48:58.691Z,35.48
2023-03-06T07:51:25.056Z,34.59
2023-03-06T07:53:51.452Z,34.48
2023-03-06T07:56:17.867Z,33.51
2023-03-06T07:58:44.252Z,33.71
2023-03-06T08:01:10.600Z,33.78
2023-03-06T08:03:36.973Z,33.60
2023-03-06T08:06:03.387Z,34.76
2023-03-06T08:08:29.847Z,35.84
2023-03-06T08:10:56.203Z,36.11
2023-03-06T08:13:22.543Z,34.76
2023-03-06T08:15:48.901Z,36.27
2023-03-06T08:18:15.251Z,36.39
2023-03-06T08:20:41.641Z,36.61
2023-03-06T08:23:08.065Z,37.74
2023-03-06T08:25:34.435Z,38.27
2023-03-06T08:28:02.879Z,38.74
2023-03-06T08:30:29.269Z,39.22
2023-03-06T08:32:55.694Z,40.57
2023-03-06T08:35:22.164Z,39.38
2023-03-06T08:37:48.579Z,40.56
2023-03-06T08:40:14.944Z,40.73
2023-03-06T08:42:41.317Z,41.82
2023-03-06T08:45:07.685Z,42.34
2023-03-06T08:47:34.080Z,42.39
2023-03-06T08:50:00.883Z,42.71
2023-03-06T08:52:27.314Z,42.77
2023-03-06T08:54:53.728Z,44.05
2023-03-06T08:57:20.100Z,43.14
2023-03-06T08:59:46.495Z,43.79
2023-03-06T09:02:12.949Z,42.13
2023-03-06T09:04:39.347Z,42.94
2023-03-06T09:07:05.747Z,44.13
2023-03-06T09:09:32.154Z,43.65
2023-03-06T09:11:58.556Z,42.62
2023-03-06T09:14:24.958Z,42.69
2023-03-06T09:16:51.397Z,43.98
2023-03-06T09:19:17.800Z,42.87
2023-03-06T09:21:44.195Z,43.74
2023-03-06T09:24:10.611Z,42.92
2023-03-06T09:26:45.557Z,43.32
2023-03-06T09:29:12.840Z,45.08
2023-03-06T09:31:39.264Z,45.23
2023-03-06T09:34:05.646Z,44.15
2023-03-06T09:36:34.409Z,44.48
2023-03-06T09:39:06.532Z,45.13
2023-03-06T09:41:32.900Z,44.65
2023-03-06T09:43:59.287Z,45.22
2023-03-06T09:46:25.756Z,47.12
2023-03-06T09:48:52.194Z,45.15
2023-03-06T09:51:18.602Z,45.92
2023-03-06T09:53:44.960Z,46.87
2023-03-06T09:56:11.379Z,46.72
2023-03-06T09:58:37.788Z,46.69
2023-03-06T10:01:04.186Z,46.76
2023-03-06T10:03:31.690Z,46.47
2023-03-06T10:05:58.067Z,46.79
2023-03-06T10:08:24.419Z,47.47
2023-03-06T10:10:50.818Z,46.68
2023-03-06T10:13:17.214Z,45.84
2023-03-06T10:15:43.626Z,45.01
2023-03-06T10:18:10.050Z,45.37
2023-03-06T10:20:36.457Z,44.62
2023-03-06T10:23:05.174Z,43.37
2023-03-06T10:25:31.829Z,44.91
2023-03-06T10:27:58.204Z,43.52
2023-03-06T10:30:24.606Z,43.57
2023-03-06T10:32:51.017Z,43.27
2023-03-06T10:35:17.421Z,43.18
2023-03-06T10:37:43.842Z,42.24
2023-03-06T10:40:10.246Z,43.46
2023-03-06T10:42:36.747Z,43.09
2023-03-06T10:45:03.180Z,42.94
2023-03-06T10:47:29.634Z,43.58
2023-03-06T10:49:55.988Z,44.30
2023-03-06T10:52:22.382Z,44.83
2023-03-06T10:54:48.761Z,45.83
2023-03-06T10:57:15.153Z,45.45
2023-03-06T10:59:41.509Z,46.72
2023-03-06T11:02:07.859Z,83.49
2023-03-06T11:04:34.278Z,70.55
2023-03-06T11:07:00.688Z,50.78
2023-03-06T11:09:27.091Z,46.01
2023-03-06T11:11:53.497Z,46.72
2023-03-06T11:14:19.861Z,45.48
2023-03-06T11:16:46.254Z,45.21
2023-03-06T11:19:12.617Z,45.85
2023-03-06T11:21:38.963Z,45.15
2023-03-06T11:24:05.366Z,44.43
2023-03-06T11:26:31.781Z,42.52
2023-03-06T11:28:58.187Z,42.04
2023-03-06T11:31:24.577Z,42.86
2023-03-06T11:33:51.060Z,44.16
2023-03-06T11:36:17.466Z,44.21
2023-03-06T11:38:43.828Z,44.48
2023-03-06T11:41:10.219Z,46.74
2023-03-06T11:43:36.632Z,46.21
2023-03-06T11:46:03.046Z,47.68
2023-03-06T11:48:29.448Z,47.66
2023-03-06T11:50:55.849Z,46.96
2023-03-06T11:53:22.246Z,48.11
2023-03-06T11:55:48.662Z,46.86
2023-03-06T11:58:15.070Z,45.31
2023-03-06T12:00:41.431Z,45.40
2023-03-06T12:03:07.791Z,44.48
2023-03-06T12:05:34.219Z,40.99
2023-03-06T12:08:00.603Z,41.14
2023-03-06T12:10:26.993Z,61.82
2023-03-06T12:12:53.389Z,50.83
2023-03-06T12:15:19.755Z,42.71
2023-03-06T12:17:46.143Z,42.26
2023-03-06T12:20:12.501Z,43.40
2023-03-06T12:22:38.857Z,43.12
2023-03-06T12:25:05.301Z,42.90
2023-03-06T12:27:31.654Z,41.89
2023-03-06T12:29:58.044Z,48.07
2023-03-06T12:32:24.467Z,40.92
2023-03-06T12:34:50.840Z,41.11
2023-03-06T12:37:17.238Z,40.95
2023-03-06T12:39:43.588Z,41.40
2023-03-06T12:42:17.832Z,41.60
2023-03-06T12:44:48.927Z,40.84
2023-03-06T12:47:15.347Z,42.17
2023-03-06T12:49:41.712Z,41.14
2023-03-06T12:52:08.225Z,41.48
2023-03-06T12:54:34.612Z,40.88
2023-03-06T12:57:01.021Z,41.21
2023-03-06T12:59:27.427Z,42.96
2023-03-06T13:01:53.837Z,43.06
2023-03-06T13:04:20.282Z,44.13
2023-03-06T13:06:50.816Z,45.42
2023-03-06T13:09:17.706Z,42.38
2023-03-06T13:11:44.073Z,44.41
2023-03-06T13:14:10.480Z,45.11
2023-03-06T13:16:36.923Z,42.76
2023-03-06T13:19:03.336Z,42.10
2023-03-06T13:21:29.757Z,43.02
2023-03-06T13:23:56.121Z,41.97
2023-03-06T13:26:22.526Z,42.24
2023-03-06T13:28:48.893Z,42.23
2023-03-06T13:31:26.526Z,43.22
2023-03-06T13:33:53.514Z,42.43
2023-03-06T13:36:20.137Z,42.63
2023-03-06T13:38:46.542Z,43.16
2023-03-06T13:41:12.954Z,42.85
2023-03-06T13:43:39.352Z,41.54
2023-03-06T13:46:05.749Z,40.90
2023-03-06T13:48:47.346Z,39.74
2023-03-06T13:51:13.740Z,39.22
2023-03-06T13:53:40.190Z,39.32
2023-03-06T13:56:06.644Z,40.55
2023-03-06T13:58:33.023Z,40.15
2023-03-06T14:00:59.448Z,40.21
2023-03-06T14:03:25.807Z,38.75
2023-03-06T14:05:52.215Z,38.45
2023-03-06T14:08:18.596Z,37.23
2023-03-06T14:10:44.950Z,36.56
2023-03-06T14:13:11.307Z,36.58
2023-03-06T14:15:37.710Z,34.62
2023-03-06T14:18:04.117Z,36.30
2023-03-06T14:20:30.520Z,36.96
2023-03-06T14:22:56.887Z,37.82
2023-03-06T14:25:23.314Z,36.29
2023-03-06T14:27:49.730Z,34.07
2023-03-06T14:30:16.134Z,32.80
2023-03-06T14:32:42.628Z,30.93
2023-03-06T14:35:08.996Z,31.92
2023-03-06T14:37:35.397Z,32.74
2023-03-06T14:40:01.805Z,33.07
2023-03-06T14:42:28.194Z,34.54
2023-03-06T14:44:54.569Z,34.11
2023-03-06T14:47:20.969Z,36.11
2023-03-06T14:49:47.375Z,34.10
2023-03-06T14:52:13.794Z,34.98
2023-03-06T14:54:40.213Z,34.35
2023-03-06T14:57:06.654Z,33.34
2023-03-06T14:59:33.067Z,32.45
2023-03-06T15:01:59.571Z,31.07
2023-03-06T15:04:25.984Z,31.27
2023-03-06T15:06:52.416Z,32.49
2023-03-06T15:09:18.811Z,31.52
2023-03-06T15:11:45.184Z,33.29
2023-03-06T15:14:11.570Z,35.83
2023-03-06T15:16:38.067Z,36.11
2023-03-06T15:19:04.464Z,35.81
2023-03-06T15:21:30.859Z,34.89
2023-03-06T15:23:57.218Z,33.53
2023-03-06T15:26:23.635Z,34.39
2023-03-06T15:28:52.185Z,33.35
2023-03-06T15:31:20.692Z,30.02
2023-03-06T15:33:47.095Z,24.76
2023-03-06T15:36:13.484Z,20.50
2023-03-06T15:38:39.905Z,24.78
2023-03-06T15:41:06.277Z,25.26
2023-03-06T15:43:32.644Z,24.79
2023-03-06T15:45:59.178Z,22.38
2023-03-06T15:48:25.678Z,21.78
2023-03-06T15:50:52.057Z,20.90
2023-03-06T15:53:18.432Z,22.54
2023-03-06T15:55:44.828Z,19.29
2023-03-06T15:58:11.199Z,15.85
2023-03-06T16:00:37.557Z,14.70
2023-03-06T16:03:03.916Z,11.86
2023-03-06T16:05:30.266Z,10.47
2023-03-06T16:07:56.608Z,10.01
2023-03-06T16:10:22.957Z,10.30
2023-03-06T16:12:49.316Z,10.75
2023-03-06T16:15:15.701Z,10.16
2023-03-06T16:17:42.051Z,10.41
2023-03-06T16:20:08.444Z,10.53
2023-03-06T16:22:34.811Z,10.79
2023-03-06T16:25:01.163Z,10.92
2023-03-06T16:27:27.547Z,10.93
2023-03-06T16:29:54.026Z,11.02
2023-03-06T16:32:20.444Z,10.98
2023-03-06T16:34:46.859Z,10.95
2023-03-06T16:37:13.247Z,10.46
2023-03-06T16:39:39.633Z,10.37
2023-03-06T16:42:06.008Z,11.07
2023-03-06T16:44:32.394Z,11.40
2023-03-06T16:46:58.750Z,11.47
2023-03-06T16:49:25.232Z,11.63
2023-03-06T16:51:51.670Z,12.07
2023-03-06T16:54:18.046Z,13.14
2023-03-06T16:56:44.407Z,13.64
2023-03-06T16:59:10.792Z,13.12
2023-03-06T17:01:37.251Z,13.52
2023-03-06T17:04:03.712Z,13.12
2023-03-06T17:06:30.113Z,13.90
2023-03-06T17:08:56.476Z,13.92
2023-03-06T17:11:22.823Z,13.58
2023-03-06T17:13:49.241Z,13.50
2023-03-06T17:16:15.682Z,13.80
2023-03-06T17:18:42.046Z,13.41
2023-03-06T17:21:08.436Z,13.08
2023-03-06T17:23:34.836Z,13.12
2023-03-06T17:26:01.229Z,13.32
2023-03-06T17:28:27.585Z,13.46
2023-03-06T17:30:53.984Z,24.73
2023-03-06T17:33:20.398Z,33.82
2023-03-06T17:35:46.836Z,71.99
2023-03-06T17:38:13.231Z,16.72
2023-03-06T17:40:39.614Z,11.77
2023-03-06T17:43:05.961Z,11.83
2023-03-06T17:45:32.312Z,11.72
2023-03-06T17:47:58.705Z,11.76
2023-03-06T17:50:25.065Z,11.53
2023-03-06T17:52:51.449Z,11.32
2023-03-06T17:55:17.846Z,11.50
2023-03-06T17:57:44.192Z,10.60
2023-03-06T18:00:10.600Z,10.50
2023-03-06T18:02:37.023Z,10.95
2023-03-06T18:05:03.409Z,10.95
2023-03-06T18:07:29.868Z,10.90
2023-03-06T18:09:56.220Z,10.10
2023-03-06T18:12:22.584Z,10.63
2023-03-06T18:14:48.976Z,10.43
2023-03-06T18:17:15.330Z,10.46
2023-03-06T18:19:41.682Z,10.79
2023-03-06T18:22:08.039Z,10.37
2023-03-06T18:24:34.389Z,10.75
2023-03-06T18:27:00.775Z,11.08
2023-03-06T18:29:27.176Z,11.41
2023-03-06T18:31:53.553Z,12.07
2023-03-06T18:34:19.957Z,16.38
2023-03-06T18:36:46.353Z,18.56
2023-03-06T18:39:12.745Z,13.04
2023-03-06T18:41:39.123Z,11.86
2023-03-06T18:44:05.522Z,12.12
2023-03-06T18:46:31.928Z,12.48
2023-03-06T18:48:58.297Z,12.69
2023-03-06T18:51:24.644Z,12.97
2023-03-06T18:53:51.039Z,13.49
2023-03-06T18:56:17.394Z,13.47
2023-03-06T18:58:43.778Z,14.81
2023-03-06T19:01:10.195Z,17.68
2023-03-06T19:03:36.637Z,29.54
2023-03-06T19:06:03.064Z,31.71
2023-03-06T19:08:29.463Z,24.27
2023-03-06T19:10:55.858Z,16.72
2023-03-06T19:13:22.250Z,13.75
2023-03-06T19:15:48.623Z,13.71
2023-03-06T19:18:15.002Z,13.91
2023-03-06T19:20:41.385Z,13.87
2023-03-06T19:23:07.803Z,14.63
2023-03-06T19:25:34.158Z,14.60
2023-03-06T19:28:00.520Z,14.96
2023-03-06T19:30:26.916Z,14.83
2023-03-06T19:32:53.331Z,15.07
2023-03-06T19:35:19.818Z,15.08
2023-03-06T19:37:46.251Z,15.04
2023-03-06T19:40:12.683Z,15.65
2023-03-06T19:42:39.039Z,15.36
2023-03-06T19:45:05.437Z,14.92
2023-03-06T19:47:31.791Z,14.95
2023-03-06T19:49:58.183Z,15.49
2023-03-06T19:52:24.561Z,15.28
2023-03-06T19:54:50.901Z,15.10
2023-03-06T19:57:17.270Z,14.83
2023-03-06T19:59:43.654Z,14.88
2023-03-06T20:02:10.052Z,14.97
2023-03-06T20:04:36.458Z,15.75
2023-03-06T20:07:02.820Z,15.25
2023-03-06T20:09:29.168Z,15.27
2023-03-06T20:11:55.554Z,15.51
2023-03-06T20:14:21.960Z,15.32
2023-03-06T20:16:48.355Z,15.38
2023-03-06T20:19:14.707Z,14.87
2023-03-06T20:21:41.051Z,14.65
2023-03-06T20:24:07.413Z,15.21
2023-03-06T20:26:33.843Z,14.87
2023-03-06T20:29:00.258Z,15.01
2023-03-06T20:31:26.688Z,15.24
2023-03-06T20:33:53.137Z,14.38
2023-03-06T20:36:19.517Z,15.36
2023-03-06T20:38:45.864Z,15.20
2023-03-06T20:41:12.228Z,15.08
2023-03-06T20:43:38.583Z,15.47
2023-03-06T20:46:05.047Z,15.44
2023-03-06T20:48:31.423Z,15.61
2023-03-06T20:50:57.772Z,15.82
2023-03-06T20:53:24.121Z,15.48
2023-03-06T20:55:50.471Z,15.60
2023-03-06T20:58:16.864Z,15.56
2023-03-06T21:00:43.215Z,15.40
2023-03-06T21:03:09.561Z,15.04
2023-03-06T21:05:35.950Z,15.05
2023-03-06T21:08:02.323Z,15.00
2023-03-06T21:10:28.670Z,14.99
2023-03-06T21:12:55.049Z,15.29
2023-03-06T21:15:21.504Z,15.56
2023-03-06T21:17:47.861Z,15.61
2023-03-06T21:20:14.257Z,15.40
2023-03-06T21:22:40.660Z,15.06
2023-03-06T21:25:07.016Z,15.63
2023-03-06T21:27:33.419Z,15.59
2023-03-06T21:29:59.771Z,15.20
2023-03-06T21:32:26.184Z,14.88
2023-03-06T21:34:52.639Z,15.45
2023-03-06T21:37:19.000Z,15.45
2023-03-06T21:39:45.341Z,15.41
2023-03-06T21:42:11.733Z,14.97
2023-03-06T21:44:38.147Z,15.03
2023-03-06T21:47:04.558Z,14.57
2023-03-06T21:49:30.909Z,15.24
2023-03-06T21:51:57.309Z,14.93
2023-03-06T21:54:23.748Z,14.98
2023-03-06T21:56:50.125Z,14.85
2023-03-06T21:59:16.492Z,14.74
2023-03-06T22:01:42.858Z,14.50
2023-03-06T22:04:09.215Z,14.30
2023-03-06T22:06:35.705Z,14.71
2023-03-06T22:09:02.101Z,14.98
2023-03-06T22:11:28.492Z,15.08
2023-03-06T22:13:54.849Z,16.07
2023-03-06T22:16:21.284Z,16.41
2023-03-06T22:18:47.655Z,16.29
2023-03-06T22:21:14.013Z,16.15
2023-03-06T22:23:40.360Z,19.73
2023-03-06T22:26:06.778Z,22.10
2023-03-06T22:28:33.190Z,18.80
2023-03-06T22:30:59.556Z,17.08
2023-03-06T22:33:25.941Z,16.25
2023-03-06T22:35:52.413Z,15.40
2023-03-06T22:38:18.815Z,14.70
2023-03-06T22:40:45.221Z,14.54
2023-03-06T22:43:11.584Z,14.61
2023-03-06T22:45:38.042Z,14.69
2023-03-06T22:48:10.818Z,14.58
2023-03-06T22:50:37.711Z,15.05
2023-03-06T22:53:04.120Z,14.64
2023-03-06T22:55:30.491Z,14.93
2023-03-06T22:57:56.839Z,14.51
2023-03-06T23:00:23.230Z,13.99
2023-03-06T23:02:49.640Z,14.64
2023-03-06T23:05:16.038Z,14.16
2023-03-06T23:07:42.404Z,14.51
2023-03-06T23:10:08.761Z,13.98
2023-03-06T23:12:35.149Z,14.81
2023-03-06T23:15:01.585Z,14.24
2023-03-06T23:17:27.988Z,13.86
2023-03-06T23:19:54.341Z,13.91
2023-03-06T23:22:20.744Z,14.49
2023-03-06T23:24:47.315Z,14.03
2023-03-06T23:27:13.693Z,14.17
2023-03-06T23:29:40.060Z,14.16
2023-03-06T23:32:06.458Z,13.77
2023-03-06T23:34:32.867Z,14.43
2023-03-06T23:36:59.271Z,14.10
2023-03-06T23:39:25.653Z,13.70
2023-03-06T23:41:52.010Z,13.97
2023-03-06T23:44:18.427Z,13.32
2023-03-06T23:46:44.778Z,14.23
2023-03-06T23:49:11.132Z,14.20
2023-03-06T23:51:37.530Z,14.32
2023-03-06T23:54:03.904Z,14.54
2023-03-06T23:56:30.298Z,14.79
2023-03-06T23:58:56.644Z,14.88
